FC2ブログ

ディスパッチャーの航空気象情報

運航管理者が航空に関する気象情報サイトを集めました。 フライト前に天気チェックに。ディスパッチャーになりたい人に。
上記の広告は1ヶ月以上更新のないブログに表示されています。
新しい記事を書く事で広告が消せます。
前線を伴った低気圧が本州の南の海上を通過するため、東・西日本は西から天気が崩れる。
九州は、午前中を中心に雷を伴って雨脚の強まることも。
関東では、夜になると広い範囲で雪に変わり、平野部でも積もる所がありそう。
また、太平洋側では、風が強まり、波が高くなる。
一方、低気圧から遠い北日本では、日中晴れ間が出そう。
日中は、全国的に気温の上がり方がにぶく、真冬らしい寒さが戻る。


by 天気のツボ

九州地方は昼過ぎまで強い雨脚になったのではないでしょうか。
北海道をを中心に久しぶりの晴れ模様でしょうか。
小さい日本でも、北と南ではかなり天気も違いそうですね。
今日は関西空港のお天気を。

RJBB 312053Z 3121/0124 05009KT 3000 BR FEW002 SCT005 BKN008
TEMPO 3121/3123 1500 BR FEW001 SCT002 BKN003
BECMG 3123/0101 6000 -RA FEW005 SCT010 BKN020
TEMPO 0100/0103 3000 -RA BR
TEMPO 0103/0109 2000 RA BR FEW003 BKN008 BKN020=

FEWではありますが、低い雲がずっと予想されていますね。
視程もTEMPOでずっと低い。
ILSが出来るので着陸は可能でしょう。
雨の月曜日は外で仕事する人にとってはちょっと大変です。


天気・気象学のホームページをチェック
コメント
この記事へのコメント
コメントを投稿する
URL:
Comment:
Pass:
秘密: 管理者にだけ表示を許可する
 
トラックバック
この記事のトラックバックURL
http://wxdisp.blog113.fc2.com/tb.php/10-8a5896b2
この記事にトラックバックする(FC2ブログユーザー)
この記事へのトラックバック
上記広告は1ヶ月以上更新のないブログに表示されています。新しい記事を書くことで広告を消せます。